Time;durP1;ratioP1;P1;durP2;ratioP2;P2;SDS_P1;SDS_P2;PMS_P1;PMS_P2;Temp;Humidity;BMP_temperature;BMP_pressure;BME280_temperature;BME280_humidity;BME280_pressure;Samples;Min_cycle;Max_cycle;Signal;HPM_P1;HPM_P2
2024/01/19 00:01:43;;;;;;;15.90;8.90;;;-0.70;99.90;;;;;;5010323;28;20655;-51
2024/01/19 00:04:08;;;;;;;16.20;8.53;;;-0.70;1.00;;;;;;5011381;28;20188;-51
2024/01/19 00:06:38;;;;;;;10.67;7.97;;;-0.60;99.90;;;;;;5011271;28;20199;-50
2024/01/19 00:09:03;;;;;;;15.60;8.03;;;-0.70;99.90;;;;;;5010251;28;20818;-51
2024/01/19 00:11:29;;;;;;;14.77;7.27;;;-0.60;99.90;;;;;;5012473;28;20439;-52
2024/01/19 00:13:54;;;;;;;11.23;6.67;;;-0.50;86.60;;;;;;5010141;28;20625;-51
2024/01/19 00:16:20;;;;;;;13.87;7.40;;;-0.50;95.10;;;;;;5009494;28;20180;-51
2024/01/19 00:18:45;;;;;;;7.60;6.00;;;-0.50;99.90;;;;;;5011540;28;20188;-51
2024/01/19 00:21:11;;;;;;;15.60;6.60;;;-0.50;99.90;;;;;;5010255;28;20841;-51
2024/01/19 00:23:37;;;;;;;13.00;6.37;;;-0.50;1.00;;;;;;5010762;28;20184;-51
2024/01/19 00:26:02;;;;;;;13.30;5.80;;;-0.50;1.00;;;;;;5011270;28;20208;-51
2024/01/19 00:28:28;;;;;;;8.23;5.90;;;-0.40;10.60;;;;;;5009572;28;20191;-51
2024/01/19 00:30:53;;;;;;;9.20;6.37;;;-0.50;32.50;;;;;;5010327;28;20259;-51
2024/01/19 00:33:19;;;;;;;14.83;6.00;;;-0.40;1.00;;;;;;5010968;28;20536;-51
2024/01/19 00:35:44;;;;;;;7.73;5.60;;;-0.50;99.90;;;;;;5011198;28;20507;-52
2024/01/19 00:38:10;;;;;;;12.10;5.73;;;-0.40;1.00;;;;;;5009642;28;20688;-52
2024/01/19 00:40:35;;;;;;;10.70;5.53;;;-0.40;1.00;;;;;;5009869;28;20660;-51
2024/01/19 00:43:01;;;;;;;9.40;5.43;;;-0.30;99.90;;;;;;5011289;28;20191;-51
2024/01/19 00:45:27;;;;;;;15.43;6.40;;;-0.30;99.90;;;;;;5010346;28;20181;-51
2024/01/19 00:47:52;;;;;;;12.97;6.00;;;-0.30;1.00;;;;;;5010798;28;20180;-51
2024/01/19 00:50:18;;;;;;;9.30;5.23;;;-0.30;99.90;;;;;;5009207;28;20191;-51
2024/01/19 00:52:43;;;;;;;10.47;5.07;;;-0.30;1.00;;;;;;5011659;28;20287;-52
2024/01/19 00:55:10;;;;;;;6.70;5.00;;;-0.40;99.90;;;;;;5011716;28;20238;-51
2024/01/19 00:57:36;;;;;;;11.83;4.60;;;-0.40;99.90;;;;;;5009635;28;20243;-51
2024/01/19 01:00:03;;;;;;;11.17;4.70;;;-0.40;99.90;;;;;;5010665;28;21388;-51
2024/01/19 01:02:29;;;;;;;6.20;3.93;;;-0.40;1.00;;;;;;5010604;28;20195;-51
2024/01/19 01:04:55;;;;;;;7.53;3.97;;;-0.50;1.00;;;;;;5013526;28;20423;-51
2024/01/19 01:07:21;;;;;;;8.00;4.63;;;-0.50;57.40;;;;;;5013538;28;20184;-51
2024/01/19 01:09:47;;;;;;;7.47;4.30;;;-0.70;99.90;;;;;;5014457;28;20500;-49
2024/01/19 01:12:13;;;;;;;9.93;5.40;;;-0.70;1.00;;;;;;5013200;28;20420;-49
2024/01/19 01:14:39;;;;;;;7.20;4.40;;;-0.70;1.00;;;;;;5015487;28;20527;-50
2024/01/19 01:17:04;;;;;;;6.30;4.37;;;-0.70;99.90;;;;;;5013319;28;20418;-50
2024/01/19 01:19:31;;;;;;;10.27;4.03;;;-0.60;1.00;;;;;;5014529;28;20699;-50
2024/01/19 01:21:57;;;;;;;5.00;3.77;;;-0.60;1.00;;;;;;5013951;28;20687;-50
2024/01/19 01:24:23;;;;;;;6.20;4.03;;;-0.60;99.90;;;;;;5013591;28;20458;-50
2024/01/19 01:26:48;;;;;;;8.30;3.80;;;-0.60;99.90;;;;;;5014173;28;20271;-50
2024/01/19 01:29:14;;;;;;;4.70;3.57;;;-0.60;99.90;;;;;;5014261;28;20188;-51
2024/01/19 01:31:40;;;;;;;6.10;3.67;;;-0.60;99.90;;;;;;5013078;28;20203;-49
2024/01/19 01:34:05;;;;;;;7.80;4.00;;;-0.50;1.00;;;;;;5013579;28;20177;-51
2024/01/19 01:36:31;;;;;;;9.83;4.87;;;-0.40;99.90;;;;;;5013718;28;20180;-50
2024/01/19 01:38:56;;;;;;;13.17;4.87;;;-0.40;99.90;;;;;;5014312;28;20190;-51
2024/01/19 01:41:22;;;;;;;10.73;4.80;;;-0.40;99.90;;;;;;5014185;28;20248;-50
2024/01/19 01:43:48;;;;;;;9.30;5.37;;;-0.40;1.00;;;;;;5013195;28;20223;-51
2024/01/19 01:46:13;;;;;;;7.90;4.90;;;-0.40;99.90;;;;;;5012471;28;20180;-51
2024/01/19 01:48:39;;;;;;;8.73;4.23;;;-0.40;99.90;;;;;;5013745;28;20184;-50
2024/01/19 01:51:06;;;;;;;7.07;5.03;;;-0.40;99.90;;;;;;5013947;28;20231;-50
2024/01/19 01:53:32;;;;;;;14.73;4.93;;;-0.50;99.90;;;;;;5013050;28;20434;-50
2024/01/19 01:55:58;;;;;;;11.33;5.37;;;-0.60;99.90;;;;;;5013674;28;20433;-50
2024/01/19 01:58:24;;;;;;;9.70;5.70;;;-0.60;1.00;;;;;;5012540;28;20422;-50
2024/01/19 02:00:50;;;;;;;9.17;5.00;;;-0.70;99.90;;;;;;5013758;28;20207;-51
2024/01/19 02:03:17;;;;;;;9.30;5.00;;;-0.70;99.90;;;;;;5012705;28;20188;-50
2024/01/19 02:05:42;;;;;;;6.43;4.07;;;-0.80;1.00;;;;;;5013263;28;20422;-50
2024/01/19 02:08:08;;;;;;;8.37;4.53;;;-0.80;99.90;;;;;;5013825;28;20415;-50
2024/01/19 02:10:33;;;;;;;7.83;4.40;;;-0.90;99.90;;;;;;5012233;28;20605;-50
2024/01/19 02:12:59;;;;;;;16.83;4.90;;;-1.00;1.00;;;;;;5013191;28;20180;-51
2024/01/19 02:15:26;;;;;;;9.30;4.13;;;-1.00;1.00;;;;;;5011472;28;20238;-50
2024/01/19 02:17:52;;;;;;;10.70;3.67;;;-0.90;99.90;;;;;;5012177;28;20191;-51
2024/01/19 02:20:18;;;;;;;9.20;3.60;;;-0.90;99.90;;;;;;5013624;28;20459;-51
2024/01/19 02:22:44;;;;;;;6.10;3.30;;;-0.90;1.00;;;;;;5011833;28;20787;-51
2024/01/19 02:25:12;;;;;;;6.37;3.30;;;-0.80;99.90;;;;;;5013666;28;20477;-51
2024/01/19 02:27:37;;;;;;;7.50;3.37;;;-0.70;99.90;;;;;;5012946;28;20414;-51
2024/01/19 02:30:07;;;;;;;4.97;3.00;;;-0.70;99.90;;;;;;5012191;28;20447;-51
2024/01/19 02:32:32;;;;;;;5.90;2.93;;;-0.70;99.90;;;;;;5011869;28;20554;-51
2024/01/19 02:34:58;;;;;;;6.30;2.87;;;-0.70;99.90;;;;;;5012598;28;20506;-51
2024/01/19 02:37:23;;;;;;;7.70;2.83;;;-0.70;1.00;;;;;;5013603;28;20184;-51
2024/01/19 02:39:49;;;;;;;8.10;2.70;;;-0.70;99.90;;;;;;5012608;28;20540;-51
2024/01/19 02:42:15;;;;;;;7.00;2.47;;;-0.60;1.00;;;;;;5011650;28;20287;-51
2024/01/19 02:44:40;;;;;;;4.03;2.87;;;-0.60;99.90;;;;;;5011520;28;20187;-51
2024/01/19 02:47:06;;;;;;;4.83;3.20;;;-0.60;1.00;;;;;;5013064;28;20183;-51
2024/01/19 02:49:32;;;;;;;5.37;2.90;;;-0.60;99.90;;;;;;5013556;28;20194;-51
2024/01/19 02:51:57;;;;;;;6.10;2.43;;;-0.70;83.00;;;;;;5011179;28;20187;-51
2024/01/19 02:54:23;;;;;;;9.90;2.40;;;-0.70;58.80;;;;;;5012384;28;20180;-51
2024/01/19 02:56:48;;;;;;;3.40;2.80;;;-0.60;99.90;;;;;;5011060;28;20181;-51
2024/01/19 02:59:14;;;;;;;3.40;2.73;;;-0.60;99.90;;;;;;5012792;28;20185;-51
2024/01/19 03:01:39;;;;;;;7.43;3.10;;;-0.50;99.90;;;;;;5012620;28;20214;-51
2024/01/19 03:04:05;;;;;;;8.77;2.90;;;-0.50;1.00;;;;;;5011503;28;20188;-51
2024/01/19 03:06:31;;;;;;;4.97;2.47;;;-0.50;1.00;;;;;;5012022;28;20180;-51
2024/01/19 03:08:56;;;;;;;5.80;2.70;;;-0.50;99.90;;;;;;5011064;28;20232;-51
2024/01/19 03:11:22;;;;;;;11.93;2.70;;;-0.60;99.90;;;;;;5012619;28;20194;-51
2024/01/19 03:13:50;;;;;;;7.57;2.87;;;-0.60;99.90;;;;;;5012311;28;20190;-51
2024/01/19 03:16:16;;;;;;;4.10;2.20;;;-0.50;1.00;;;;;;5011104;28;20192;-52
2024/01/19 03:18:41;;;;;;;11.67;2.53;;;-0.50;1.00;;;;;;5012250;28;20756;-51
2024/01/19 03:21:08;;;;;;;10.73;2.97;;;-0.40;1.00;;;;;;5011394;28;20236;-51
2024/01/19 03:23:34;;;;;;;6.60;2.43;;;-0.40;1.00;;;;;;5012079;28;20191;-51
2024/01/19 03:25:59;;;;;;;10.00;2.80;;;-0.30;1.00;;;;;;5010578;28;20417;-51
2024/01/19 03:28:25;;;;;;;5.37;2.83;;;-0.30;1.00;;;;;;5011585;28;20180;-51
2024/01/19 03:30:50;;;;;;;6.50;2.83;;;-0.20;1.00;;;;;;5011132;28;20192;-51
2024/01/19 03:33:16;;;;;;;5.80;3.20;;;-0.20;99.90;;;;;;5013299;28;20246;-50
2024/01/19 03:35:42;;;;;;;5.07;2.73;;;-0.20;99.90;;;;;;5011297;28;20180;-51
2024/01/19 03:38:07;;;;;;;9.70;3.00;;;-0.20;99.90;;;;;;5010639;28;20263;-50
2024/01/19 03:40:33;;;;;;;4.17;2.57;;;-0.30;1.00;;;;;;5011110;28;20243;-51
2024/01/19 03:42:59;;;;;;;8.03;3.43;;;-0.30;1.00;;;;;;5011807;28;20187;-50
2024/01/19 03:45:24;;;;;;;9.63;3.00;;;-0.30;99.90;;;;;;5010420;28;20666;-50
2024/01/19 03:47:50;;;;;;;9.70;2.83;;;-0.30;1.00;;;;;;5010798;28;20184;-50
2024/01/19 03:50:16;;;;;;;13.83;3.23;;;-0.40;1.00;;;;;;5011258;28;20180;-50
2024/01/19 03:52:43;;;;;;;4.40;2.60;;;-0.40;29.00;;;;;;5012060;28;20731;-50
2024/01/19 03:55:08;;;;;;;10.47;3.27;;;-0.40;99.90;;;;;;5011383;28;20675;-50
2024/01/19 03:57:34;;;;;;;5.30;2.90;;;-0.40;99.90;;;;;;5011768;28;20505;-52
2024/01/19 04:00:00;;;;;;;8.23;3.10;;;-0.40;99.90;;;;;;5009605;28;20204;-50
2024/01/19 04:02:25;;;;;;;11.80;3.00;;;-0.40;1.00;;;;;;5011006;28;20557;-51
2024/01/19 04:04:51;;;;;;;6.03;2.43;;;-0.40;1.00;;;;;;5011815;28;20188;-50
2024/01/19 04:07:16;;;;;;;7.50;2.40;;;-0.40;1.00;;;;;;5011342;28;20192;-51
2024/01/19 04:09:42;;;;;;;5.40;2.37;;;-0.40;1.00;;;;;;5010774;28;20326;-51
2024/01/19 04:12:15;;;;;;;3.43;2.37;;;-0.30;84.30;;;;;;5010273;28;20183;-51
2024/01/19 04:14:42;;;;;;;3.63;2.10;;;-0.20;1.00;;;;;;5010101;28;20696;-50
2024/01/19 04:17:08;;;;;;;14.27;3.43;;;-0.20;1.00;;;;;;5011322;28;20934;-51
2024/01/19 04:19:34;;;;;;;6.30;2.20;;;-0.20;1.00;;;;;;5010547;28;20452;-50
2024/01/19 04:22:00;;;;;;;4.20;2.27;;;-0.10;1.00;;;;;;5011061;28;20496;-50
2024/01/19 04:24:26;;;;;;;7.07;2.40;;;0.00;99.90;;;;;;5010314;28;20419;-50
2024/01/19 04:26:51;;;;;;;2.93;2.00;;;0.00;99.90;;;;;;5010747;28;20183;-50
2024/01/19 04:29:17;;;;;;;11.13;2.37;;;0.00;40.00;;;;;;5009310;28;20227;-51
2024/01/19 04:31:42;;;;;;;7.00;2.00;;;0.00;1.00;;;;;;5010376;28;20301;-51
2024/01/19 04:34:08;;;;;;;3.10;2.17;;;0.00;99.90;;;;;;5011256;28;20187;-50
2024/01/19 04:36:34;;;;;;;8.20;2.70;;;0.00;99.90;;;;;;5010469;28;20192;-50
2024/01/19 04:39:00;;;;;;;6.87;3.27;;;0.00;99.90;;;;;;5015762;28;20425;-50
2024/01/19 04:41:25;;;;;;;8.20;2.53;;;0.00;99.90;;;;;;5016593;28;20267;-50
2024/01/19 04:43:51;;;;;;;7.43;2.80;;;0.00;99.90;;;;;;5015663;28;20206;-51
2024/01/19 04:46:16;;;;;;;3.80;2.03;;;0.10;99.90;;;;;;5017022;28;20231;-51
2024/01/19 04:48:42;;;;;;;8.27;2.20;;;0.00;99.90;;;;;;5017664;28;20184;-51
2024/01/19 04:51:07;;;;;;;4.80;2.00;;;0.10;1.00;;;;;;5016983;28;20184;-51
2024/01/19 04:53:33;;;;;;;7.63;2.00;;;0.00;1.00;;;;;;5017688;28;20187;-51
2024/01/19 04:55:58;;;;;;;5.03;2.20;;;0.00;1.00;;;;;;5016275;28;20176;-52
2024/01/19 04:58:24;;;;;;;7.97;2.60;;;0.10;1.00;;;;;;5015402;28;20192;-51
2024/01/19 05:00:49;;;;;;;5.57;2.20;;;0.00;99.90;;;;;;5017851;28;20286;-51
2024/01/19 05:03:15;;;;;;;5.70;2.00;;;0.10;99.90;;;;;;5017348;28;20207;-52
2024/01/19 05:05:41;;;;;;;7.00;2.63;;;0.00;1.00;;;;;;5016791;28;20184;-51
2024/01/19 05:08:06;;;;;;;8.17;2.80;;;0.00;1.00;;;;;;5015504;28;20172;-51
2024/01/19 05:10:34;;;;;;;4.90;2.87;;;0.00;1.00;;;;;;5017764;28;20257;-51
2024/01/19 05:12:59;;;;;;;9.67;2.43;;;-0.10;1.00;;;;;;5017632;28;20192;-51
2024/01/19 05:15:25;;;;;;;3.23;2.23;;;-0.10;1.00;;;;;;5015638;28;20411;-51
2024/01/19 05:17:50;;;;;;;7.97;2.57;;;-0.10;1.00;;;;;;5016841;28;20222;-51
2024/01/19 05:20:18;;;;;;;6.70;2.57;;;0.00;1.00;;;;;;5017345;28;20212;-51
2024/01/19 05:22:43;;;;;;;5.93;2.83;;;-0.10;1.00;;;;;;5015922;28;20219;-52
2024/01/19 05:25:09;;;;;;;3.10;2.37;;;-0.10;1.00;;;;;;5017615;28;20977;-50
2024/01/19 05:27:35;;;;;;;6.47;2.20;;;0.00;99.90;;;;;;5016114;28;20564;-50
2024/01/19 05:30:01;;;;;;;6.20;2.90;;;0.00;1.00;;;;;;5016417;28;20226;-50
2024/01/19 05:32:26;;;;;;;6.00;2.70;;;0.00;1.00;;;;;;5017983;28;20184;-50
2024/01/19 05:34:52;;;;;;;7.10;2.60;;;0.00;99.90;;;;;;5015685;28;20277;-51
2024/01/19 05:37:17;;;;;;;7.13;3.00;;;0.00;99.90;;;;;;5016954;28;20597;-51
2024/01/19 05:39:43;;;;;;;8.93;2.23;;;0.00;99.90;;;;;;5016398;28;20722;-50
2024/01/19 05:42:09;;;;;;;11.33;2.53;;;-0.20;99.90;;;;;;5018186;28;20184;-51
2024/01/19 05:44:34;;;;;;;7.93;2.23;;;-0.30;99.90;;;;;;5015779;28;20220;-51
2024/01/19 05:47:00;;;;;;;9.23;2.40;;;-0.40;99.90;;;;;;5017175;28;20658;-52
2024/01/19 05:49:25;;;;;;;3.63;2.30;;;-0.40;1.00;;;;;;5014542;28;20183;-51
2024/01/19 05:51:51;;;;;;;3.67;2.07;;;-0.50;1.00;;;;;;5013600;28;20267;-51
2024/01/19 05:54:18;;;;;;;14.07;2.50;;;-0.50;1.00;;;;;;5013797;28;20181;-51
2024/01/19 05:56:43;;;;;;;16.40;2.13;;;-0.50;99.90;;;;;;5013629;28;20184;-51
2024/01/19 05:59:09;;;;;;;3.73;2.00;;;-0.50;99.90;;;;;;5014218;28;20462;-51
2024/01/19 06:01:34;;;;;;;4.33;2.03;;;-0.40;99.90;;;;;;5012995;28;20746;-50
2024/01/19 06:04:00;;;;;;;10.83;2.77;;;-0.30;1.00;;;;;;5011266;28;20672;-50
2024/01/19 06:06:26;;;;;;;3.63;2.10;;;-0.20;99.90;;;;;;5013988;28;20643;-50
2024/01/19 06:08:51;;;;;;;6.90;2.13;;;-0.20;99.90;;;;;;5013448;28;20467;-51
2024/01/19 06:11:17;;;;;;;4.23;1.90;;;-0.20;1.00;;;;;;5012969;28;20204;-51
2024/01/19 06:13:44;;;;;;;6.63;2.27;;;-0.10;99.90;;;;;;5012933;28;20184;-50
2024/01/19 06:16:10;;;;;;;12.73;2.50;;;-0.10;1.00;;;;;;5012538;28;20215;-51
2024/01/19 06:18:35;;;;;;;7.70;2.90;;;0.00;1.00;;;;;;5013021;28;20447;-50
2024/01/19 06:21:01;;;;;;;4.60;2.30;;;-0.10;99.90;;;;;;5013148;28;20204;-50
2024/01/19 06:23:27;;;;;;;5.50;2.30;;;-0.10;7.00;;;;;;5012856;28;20551;-51
2024/01/19 06:25:52;;;;;;;6.00;2.20;;;0.00;99.90;;;;;;5012201;28;20254;-50
2024/01/19 06:28:18;;;;;;;5.20;2.43;;;0.00;99.90;;;;;;5012903;28;20608;-51
2024/01/19 06:30:45;;;;;;;9.60;2.70;;;-0.10;92.20;;;;;;5013619;28;20577;-51
2024/01/19 06:33:11;;;;;;;5.13;2.20;;;-0.20;1.00;;;;;;5011292;28;20214;-51
2024/01/19 06:35:36;;;;;;;3.00;2.40;;;-0.20;1.00;;;;;;5013356;28;20420;-51
2024/01/19 06:38:06;;;;;;;11.03;2.40;;;-0.20;99.90;;;;;;5012521;28;20791;-51
2024/01/19 06:40:31;;;;;;;6.67;1.90;;;-0.20;99.90;;;;;;5012520;28;20196;-51
2024/01/19 06:42:57;;;;;;;4.70;2.33;;;-0.10;1.00;;;;;;5012044;28;20419;-51
2024/01/19 06:45:22;;;;;;;7.93;3.23;;;-0.10;1.00;;;;;;5012025;28;20176;-51
2024/01/19 06:47:48;;;;;;;9.23;2.00;;;-0.10;1.00;;;;;;5012755;28;20175;-51
2024/01/19 06:50:13;;;;;;;7.03;2.60;;;0.00;99.90;;;;;;5011967;28;20192;-52
2024/01/19 06:52:39;;;;;;;8.57;2.57;;;-0.10;99.90;;;;;;5012463;28;20200;-51
2024/01/19 06:55:05;;;;;;;7.77;2.20;;;-0.10;97.70;;;;;;5011767;28;20715;-55
2024/01/19 06:57:31;;;;;;;4.97;2.27;;;0.00;12.50;;;;;;5011565;28;20184;-51
2024/01/19 06:59:56;;;;;;;6.30;2.20;;;0.00;1.00;;;;;;5012715;28;20506;-52
2024/01/19 07:02:23;;;;;;;8.23;2.13;;;0.00;99.90;;;;;;5011494;28;20203;-51
2024/01/19 07:04:48;;;;;;;3.20;2.33;;;-0.10;99.90;;;;;;5012357;28;20183;-51
2024/01/19 07:07:14;;;;;;;2.27;2.00;;;-0.10;99.90;;;;;;5011179;28;20415;-52
2024/01/19 07:09:39;;;;;;;8.10;2.97;;;-0.10;99.90;;;;;;5012398;28;20236;-51
2024/01/19 07:12:05;;;;;;;4.70;2.67;;;-0.20;99.90;;;;;;5012208;28;20549;-51
2024/01/19 07:14:31;;;;;;;4.63;2.40;;;-0.10;1.00;;;;;;5011494;28;20191;-51
2024/01/19 07:16:56;;;;;;;3.70;2.10;;;-0.10;1.00;;;;;;5011894;28;20419;-51
2024/01/19 07:19:22;;;;;;;6.23;2.77;;;-0.10;1.00;;;;;;5011314;28;20274;-51
2024/01/19 07:21:48;;;;;;;8.33;2.77;;;-0.20;1.00;;;;;;5010754;28;20215;-51
2024/01/19 07:24:13;;;;;;;5.33;2.40;;;-0.20;99.90;;;;;;5011722;28;20278;-52
2024/01/19 07:26:39;;;;;;;3.83;3.30;;;-0.20;99.90;;;;;;5013109;28;20568;-51
2024/01/19 07:29:09;;;;;;;6.30;2.60;;;-0.20;99.90;;;;;;5010619;28;20226;-51
2024/01/19 07:31:35;;;;;;;7.00;3.03;;;-0.20;1.00;;;;;;5011296;28;20768;-51
2024/01/19 07:34:01;;;;;;;7.73;2.73;;;-0.30;1.00;;;;;;5011111;28;20447;-51
2024/01/19 07:36:27;;;;;;;3.80;3.27;;;-0.30;99.90;;;;;;5010754;28;20453;-51
2024/01/19 07:38:52;;;;;;;7.97;2.60;;;-0.30;99.90;;;;;;5011906;28;20199;-51
2024/01/19 07:41:18;;;;;;;6.37;3.10;;;-0.30;99.90;;;;;;5009855;28;20684;-51
2024/01/19 07:43:44;;;;;;;6.70;2.83;;;-0.20;99.90;;;;;;5011921;28;20403;-52
2024/01/19 07:46:11;;;;;;;6.40;3.00;;;-0.20;93.00;;;;;;5009314;28;20180;-52
2024/01/19 07:48:37;;;;;;;10.87;3.37;;;-0.20;1.00;;;;;;5010330;28;20192;-52
2024/01/19 07:51:03;;;;;;;5.23;2.63;;;-0.20;1.00;;;;;;5010264;28;20882;-52
2024/01/19 07:53:28;;;;;;;8.30;2.60;;;-0.20;1.00;;;;;;5010727;28;20506;-52
2024/01/19 07:55:54;;;;;;;6.57;3.10;;;-0.30;1.00;;;;;;5011049;28;20184;-51
2024/01/19 07:58:20;;;;;;;8.37;3.50;;;-0.30;1.00;;;;;;5009665;28;20188;-52
2024/01/19 08:00:45;;;;;;;9.03;3.67;;;-0.30;99.90;;;;;;5008824;28;20298;-51
2024/01/19 08:03:11;;;;;;;4.80;3.00;;;-0.20;1.00;;;;;;5011897;28;20184;-51
2024/01/19 08:05:37;;;;;;;5.47;2.73;;;-0.10;1.00;;;;;;5011145;28;20187;-51
2024/01/19 08:08:02;;;;;;;5.73;3.20;;;0.00;1.00;;;;;;5009964;28;20195;-51
2024/01/19 08:10:31;;;;;;;10.67;2.93;;;0.00;1.00;;;;;;5011556;28;20236;-52
2024/01/19 08:12:59;;;;;;;7.37;2.63;;;0.10;1.00;;;;;;5012218;28;20572;-51
2024/01/19 08:15:25;;;;;;;8.80;3.57;;;0.10;99.90;;;;;;5013735;28;20427;-51
2024/01/19 08:17:50;;;;;;;8.03;3.60;;;0.20;99.90;;;;;;5013816;28;20425;-51
2024/01/19 08:20:16;;;;;;;17.73;4.10;;;0.20;99.90;;;;;;5014056;28;20220;-51
2024/01/19 08:22:42;;;;;;;6.63;3.20;;;0.30;99.90;;;;;;5013822;28;20186;-51
2024/01/19 08:25:09;;;;;;;10.00;3.50;;;0.40;33.80;;;;;;5013921;28;20267;-51
2024/01/19 08:27:35;;;;;;;7.77;3.03;;;0.40;1.00;;;;;;5013958;28;20419;-51
2024/01/19 08:30:01;;;;;;;7.10;3.37;;;0.50;99.90;;;;;;5013960;28;20443;-51
2024/01/19 08:32:27;;;;;;;9.60;2.70;;;0.50;12.10;;;;;;5013571;28;20476;-51
2024/01/19 08:34:53;;;;;;;8.43;3.00;;;0.50;1.00;;;;;;5013748;28;20184;-51
2024/01/19 08:37:18;;;;;;;10.47;3.53;;;0.60;99.90;;;;;;5013858;28;20419;-51
2024/01/19 08:39:44;;;;;;;14.87;3.30;;;0.50;13.80;;;;;;5013548;28;20203;-50
2024/01/19 08:42:10;;;;;;;10.60;3.03;;;0.50;25.10;;;;;;5013563;28;20322;-51
2024/01/19 08:44:35;;;;;;;8.13;2.90;;;0.60;1.00;;;;;;5013278;28;20960;-51
2024/01/19 08:47:01;;;;;;;9.07;3.37;;;0.60;1.00;;;;;;5013320;28;20660;-51
2024/01/19 08:49:26;;;;;;;8.20;3.00;;;0.60;1.00;;;;;;5013653;28;20617;-51
2024/01/19 08:51:53;;;;;;;14.63;3.50;;;0.50;99.90;;;;;;5013236;28;20263;-50
2024/01/19 08:54:18;;;;;;;8.67;2.33;;;0.50;99.90;;;;;;5013310;28;20210;-49
2024/01/19 08:56:44;;;;;;;8.93;3.63;;;0.50;99.90;;;;;;5013479;28;20903;-50
2024/01/19 08:59:12;;;;;;;8.17;2.70;;;0.50;99.90;;;;;;5013429;28;20559;-51
2024/01/19 09:01:37;;;;;;;8.10;2.33;;;0.50;99.90;;;;;;5013359;28;20740;-51
2024/01/19 09:04:03;;;;;;;9.13;2.97;;;0.60;64.00;;;;;;5013208;28;20419;-51
2024/01/19 09:06:28;;;;;;;10.43;3.20;;;0.60;1.00;;;;;;5013181;28;20307;-52
2024/01/19 09:08:54;;;;;;;10.03;2.93;;;0.50;1.00;;;;;;5013214;28;20714;-52
2024/01/19 09:11:20;;;;;;;12.30;3.07;;;0.60;1.00;;;;;;5012808;28;20670;-52
2024/01/19 09:13:45;;;;;;;15.70;3.00;;;0.60;99.90;;;;;;5013070;28;20185;-52
2024/01/19 09:16:11;;;;;;;7.43;3.37;;;0.70;99.90;;;;;;5013362;28;20234;-52
2024/01/19 09:18:38;;;;;;;9.07;2.90;;;1.00;99.90;;;;;;5012655;28;20176;-52
2024/01/19 09:21:04;;;;;;;5.90;2.80;;;1.30;38.40;;;;;;5012328;28;20831;-53
2024/01/19 09:23:30;;;;;;;9.23;2.87;;;1.40;1.00;;;;;;5012540;28;20423;-51
2024/01/19 09:25:56;;;;;;;7.23;2.17;;;1.40;1.00;;;;;;5016803;28;20583;-52
2024/01/19 09:28:22;;;;;;;5.40;2.50;;;1.40;1.00;;;;;;5016706;28;20271;-52
2024/01/19 09:30:47;;;;;;;7.93;2.50;;;1.50;1.00;;;;;;5016875;28;20185;-51
2024/01/19 09:33:14;;;;;;;6.37;1.87;;;1.70;99.90;;;;;;5016650;28;20187;-51
2024/01/19 09:35:40;;;;;;;7.07;3.00;;;1.90;99.90;;;;;;5016664;28;20187;-52
2024/01/19 09:38:06;;;;;;;15.33;2.53;;;1.90;99.90;;;;;;5016475;28;20426;-51
2024/01/19 09:40:32;;;;;;;4.97;2.30;;;1.90;99.90;;;;;;5016681;28;20463;-51
2024/01/19 09:42:58;;;;;;;7.43;2.30;;;2.00;99.90;;;;;;5016797;28;20188;-52
2024/01/19 09:45:26;;;;;;;9.30;2.43;;;2.00;99.90;;;;;;5016446;28;20918;-52
2024/01/19 09:48:23;;;;;;;5.37;2.70;;;2.00;99.90;;;;;;5016441;28;20314;-51
2024/01/19 09:50:51;;;;;;;7.67;2.70;;;2.00;99.90;;;;;;5016420;28;20433;-51
2024/01/19 09:53:34;;;;;;;9.80;3.30;;;1.90;99.90;;;;;;5016299;28;20899;-51
2024/01/19 09:56:00;;;;;;;7.23;2.77;;;1.90;99.90;;;;;;5016456;28;20429;-52
2024/01/19 09:58:26;;;;;;;5.10;2.57;;;1.90;99.90;;;;;;5016133;28;20411;-51
2024/01/19 10:00:52;;;;;;;21.27;3.27;;;2.00;99.90;;;;;;5013224;28;20239;-51
2024/01/19 10:03:19;;;;;;;12.20;2.60;;;2.00;99.90;;;;;;5011114;28;20422;-51
2024/01/19 10:05:48;;;;;;;12.13;3.00;;;2.00;99.90;;;;;;5012669;28;20914;-53
2024/01/19 10:08:14;;;;;;;13.50;2.83;;;2.00;99.90;;;;;;5012701;28;20469;-51
2024/01/19 10:10:44;;;;;;;10.10;2.63;;;2.00;99.90;;;;;;5013744;28;21076;-51
2024/01/19 10:13:10;;;;;;;14.30;3.60;;;2.20;99.90;;;;;;5012939;28;20774;-50
2024/01/19 10:15:36;;;;;;;5.30;2.40;;;2.50;99.90;;;;;;5013388;28;20751;-51
2024/01/19 10:18:03;;;;;;;6.40;2.50;;;3.20;99.90;;;;;;5012681;28;20430;-52
2024/01/19 10:20:30;;;;;;;7.87;2.20;;;3.50;95.40;;;;;;5013125;28;20216;-48
2024/01/19 10:22:55;;;;;;;10.03;3.00;;;3.70;43.90;;;;;;5013087;28;20446;-50
2024/01/19 10:25:21;;;;;;;8.30;2.83;;;3.50;21.00;;;;;;5012704;28;20528;-50
2024/01/19 10:27:51;;;;;;;9.10;2.73;;;3.20;15.70;;;;;;5013067;28;20199;-51
2024/01/19 10:30:27;;;;;;;8.90;2.70;;;2.90;20.80;;;;;;5013369;28;20196;-51
2024/01/19 10:33:02;;;;;;;17.73;3.10;;;2.70;26.90;;;;;;5012276;28;20477;-51
2024/01/19 10:35:28;;;;;;;11.83;2.90;;;2.50;39.70;;;;;;5012684;28;20422;-51
2024/01/19 10:38:03;;;;;;;5.00;2.83;;;2.50;56.50;;;;;;5012691;28;20416;-51
2024/01/19 10:40:31;;;;;;;10.23;2.87;;;2.70;43.70;;;;;;5011385;28;20262;-53
2024/01/19 10:42:57;;;;;;;6.33;2.23;;;2.90;43.60;;;;;;5013182;28;20438;-55
2024/01/19 10:45:24;;;;;;;13.40;3.30;;;3.20;35.40;;;;;;5011310;28;20505;-52
2024/01/19 10:47:54;;;;;;;10.23;2.70;;;3.70;9.50;;;;;;5012637;28;20430;-50
2024/01/19 10:50:21;;;;;;;5.33;2.37;;;4.40;1.00;;;;;;5012518;28;20832;-52
2024/01/19 10:52:48;;;;;;;8.67;2.77;;;5.10;1.00;;;;;;5012296;28;20758;-51
2024/01/19 10:55:22;;;;;;;9.87;2.40;;;5.80;1.00;;;;;;5012301;28;20848;-52
2024/01/19 10:57:50;;;;;;;9.20;2.67;;;6.40;1.00;;;;;;5011601;28;20437;-52
2024/01/19 11:00:22;;;;;;;9.50;2.53;;;6.70;1.00;;;;;;5011636;28;20466;-52
2024/01/19 11:02:51;;;;;;;10.33;2.63;;;8.00;1.00;;;;;;5011954;28;20435;-51
2024/01/19 11:05:19;;;;;;;8.60;3.00;;;9.20;1.00;;;;;;5011463;28;20415;-51
2024/01/19 11:07:45;;;;;;;7.03;2.40;;;9.50;1.00;;;;;;5012290;28;20518;-51
2024/01/19 11:10:12;;;;;;;11.17;2.67;;;8.90;1.00;;;;;;5011537;28;20526;-52
2024/01/19 11:12:51;;;;;;;7.33;2.23;;;8.00;1.00;;;;;;5011542;28;20930;-51
2024/01/19 11:15:42;;;;;;;9.27;3.03;;;6.50;1.00;;;;;;5010189;28;20465;-52
2024/01/19 11:18:08;;;;;;;6.30;2.20;;;5.10;1.00;;;;;;5010947;28;20898;-51
2024/01/19 11:20:34;;;;;;;14.13;3.37;;;4.30;1.00;;;;;;5012411;28;20550;-51
2024/01/19 11:23:01;;;;;;;12.10;2.80;;;3.90;1.00;;;;;;5010724;28;21022;-51
2024/01/19 11:25:35;;;;;;;7.47;2.20;;;3.60;1.00;;;;;;5012149;28;20429;-51
2024/01/19 11:28:16;;;;;;;11.43;2.87;;;3.30;1.00;;;;;;5010896;28;20407;-51
2024/01/19 11:31:10;;;;;;;15.97;2.73;;;2.90;1.00;;;;;;5012754;28;20414;-51
2024/01/19 11:33:36;;;;;;;10.13;2.33;;;2.60;11.30;;;;;;5011495;28;20510;-52
2024/01/19 11:36:02;;;;;;;10.40;2.90;;;2.40;94.00;;;;;;5012181;28;20426;-51
2024/01/19 11:38:45;;;;;;;11.37;3.00;;;2.40;99.90;;;;;;5010373;28;20684;-51
2024/01/19 11:41:33;;;;;;;7.77;2.97;;;2.30;99.90;;;;;;5012814;28;20459;-51
2024/01/19 11:44:00;;;;;;;9.47;2.87;;;2.10;99.90;;;;;;5011080;28;20521;-51
2024/01/19 11:46:42;;;;;;;11.63;2.93;;;2.10;99.90;;;;;;5010714;28;20438;-51
2024/01/19 11:49:28;;;;;;;13.70;3.00;;;2.00;1.00;;;;;;5010408;28;20515;-51
2024/01/19 11:51:54;;;;;;;5.90;2.60;;;2.00;1.00;;;;;;5010180;28;20432;-51
2024/01/19 11:54:26;;;;;;;8.90;2.80;;;2.00;1.00;;;;;;5011354;28;20502;-51
2024/01/19 11:56:52;;;;;;;8.20;3.20;;;2.20;1.00;;;;;;5011733;28;20516;-52
2024/01/19 11:59:21;;;;;;;8.20;2.90;;;2.20;1.00;;;;;;5010260;28;20422;-51
2024/01/19 12:01:46;;;;;;;8.50;2.97;;;2.20;1.00;;;;;;5011193;28;20227;-52
2024/01/19 12:04:14;;;;;;;13.23;2.80;;;2.20;1.00;;;;;;5011551;28;20425;-51
2024/01/19 12:06:40;;;;;;;9.90;3.50;;;2.10;1.00;;;;;;5010811;28;20184;-51
2024/01/19 12:09:07;;;;;;;8.13;3.23;;;2.10;25.60;;;;;;5011526;28;20805;-52
2024/01/19 12:11:34;;;;;;;15.83;3.20;;;2.00;99.90;;;;;;5011459;28;20199;-52
2024/01/19 12:14:03;;;;;;;7.40;3.13;;;2.00;99.90;;;;;;5010302;28;20995;-51
2024/01/19 12:16:33;;;;;;;6.47;2.73;;;2.00;99.90;;;;;;5010608;28;20502;-50
2024/01/19 12:18:58;;;;;;;8.03;2.77;;;1.90;1.00;;;;;;5011227;28;20188;-51
2024/01/19 12:21:25;;;;;;;10.87;2.50;;;1.90;1.00;;;;;;5011166;28;20470;-51
2024/01/19 12:23:57;;;;;;;9.60;2.33;;;1.90;99.90;;;;;;5010834;28;20211;-51
2024/01/19 12:26:23;;;;;;;7.20;3.20;;;1.90;99.90;;;;;;5010418;28;20409;-51
2024/01/19 12:28:52;;;;;;;9.93;3.27;;;1.90;99.90;;;;;;5009690;28;20425;-51
2024/01/19 12:31:22;;;;;;;9.70;2.10;;;2.00;99.90;;;;;;5011076;28;20270;-51
2024/01/19 12:33:47;;;;;;;6.60;3.00;;;2.10;1.00;;;;;;5010407;28;20502;-51
2024/01/19 12:36:17;;;;;;;4.53;2.33;;;2.20;99.90;;;;;;5011787;28;20501;-52
2024/01/19 12:38:43;;;;;;;4.63;2.20;;;2.50;99.90;;;;;;5009366;28;20199;-52
2024/01/19 12:41:15;;;;;;;3.80;2.27;;;2.60;1.00;;;;;;5013044;28;20478;-52
2024/01/19 12:43:41;;;;;;;5.37;2.47;;;2.50;99.90;;;;;;5019188;28;20222;-52
2024/01/19 12:46:08;;;;;;;8.43;2.30;;;2.50;99.90;;;;;;5033576;28;20413;-52
2024/01/19 12:48:35;;;;;;;8.70;3.40;;;2.50;99.90;;;;;;5033146;28;20335;-52
2024/01/19 12:51:07;;;;;;;7.07;2.47;;;2.40;99.90;;;;;;5033250;28;20907;-53